Time;durP1;ratioP1;P1;durP2;ratioP2;P2;SDS_P1;SDS_P2;PMS_P1;PMS_P2;Temp;Humidity;BMP_temperature;BMP_pressure;BME280_temperature;BME280_humidity;BME280_pressure;Samples;Min_cycle;Max_cycle;Signal;HPM_P1;HPM_P2
2023/11/08 08:29:09;;;;;;;7.00;1.77;;;8.80;99.90;;;;;;3460835;23;20258;-70
2023/11/08 08:31:36;;;;;;;2.57;1.00;;;8.80;99.90;;;;;;4879675;29;20289;-69
2023/11/08 08:34:02;;;;;;;2.93;0.90;;;8.80;99.90;;;;;;4879455;29;20638;-71
2023/11/08 08:36:31;;;;;;;2.30;1.00;;;8.80;99.90;;;;;;4874034;29;20314;-70
2023/11/08 08:38:58;;;;;;;2.40;1.00;;;8.90;99.90;;;;;;4878239;29;20290;-70
2023/11/08 08:41:25;;;;;;;3.07;1.00;;;9.00;99.90;;;;;;4879346;29;20305;-71
2023/11/08 08:43:52;;;;;;;2.80;1.20;;;9.00;99.90;;;;;;4879427;29;20216;-67
2023/11/08 08:46:20;;;;;;;4.40;1.50;;;9.10;99.90;;;;;;4879286;29;20782;-68
2023/11/08 08:48:49;;;;;;;6.10;1.20;;;9.20;99.90;;;;;;4879465;29;20679;-70
2023/11/08 08:51:16;;;;;;;3.10;1.30;;;9.40;99.90;;;;;;4880236;29;20207;-69
2023/11/08 08:53:43;;;;;;;3.23;1.40;;;9.40;99.90;;;;;;4878996;29;20658;-68
2023/11/08 08:56:11;;;;;;;4.03;1.20;;;9.40;99.90;;;;;;4878926;29;20231;-78
2023/11/08 08:58:38;;;;;;;2.37;1.07;;;9.50;99.90;;;;;;4879359;29;20294;-68
2023/11/08 09:01:06;;;;;;;4.27;1.17;;;9.60;99.90;;;;;;4879476;29;20685;-70
2023/11/08 09:03:34;;;;;;;3.27;1.23;;;9.60;99.90;;;;;;4879448;29;20290;-76
2023/11/08 09:06:01;;;;;;;3.33;1.00;;;9.60;99.90;;;;;;4878790;29;20754;-79
2023/11/08 09:08:28;;;;;;;3.53;1.10;;;9.70;99.90;;;;;;4879173;29;20282;-71
2023/11/08 09:10:55;;;;;;;10.63;2.90;;;9.80;99.90;;;;;;4879358;29;20286;-71
2023/11/08 09:13:22;;;;;;;3.87;1.13;;;9.90;99.90;;;;;;4878763;29;20286;-74
2023/11/08 09:15:49;;;;;;;4.10;1.10;;;9.90;99.90;;;;;;4879317;29;20322;-72
2023/11/08 09:18:16;;;;;;;3.33;1.00;;;9.90;99.90;;;;;;4879279;29;20215;-73
2023/11/08 09:20:45;;;;;;;2.93;0.97;;;9.90;99.90;;;;;;4879453;29;20214;-72
2023/11/08 09:23:12;;;;;;;3.33;1.10;;;9.80;99.90;;;;;;4879112;29;20218;-76
2023/11/08 09:25:39;;;;;;;1.77;1.10;;;9.80;99.90;;;;;;4878889;29;20266;-75
2023/11/08 09:28:06;;;;;;;2.53;1.00;;;9.90;99.90;;;;;;4878860;29;20229;-80
2023/11/08 09:30:34;;;;;;;2.20;0.90;;;9.90;99.90;;;;;;4879198;29;20307;-75
2023/11/08 09:33:01;;;;;;;3.53;0.80;;;10.10;99.90;;;;;;4879058;29;20227;-69
2023/11/08 09:35:27;;;;;;;2.00;0.53;;;10.40;99.90;;;;;;4878774;29;20241;-74
2023/11/08 09:37:56;;;;;;;4.60;0.80;;;10.60;99.90;;;;;;4878772;29;20298;-74
2023/11/08 09:40:23;;;;;;;0.90;0.60;;;10.80;99.90;;;;;;4878671;29;20215;-69
2023/11/08 09:42:51;;;;;;;3.83;1.00;;;10.80;99.90;;;;;;4878265;29;20252;-76
2023/11/08 09:45:19;;;;;;;3.37;0.80;;;10.60;99.90;;;;;;4878381;29;20591;-74
2023/11/08 09:47:47;;;;;;;1.17;0.67;;;10.60;99.90;;;;;;4879806;29;20666;-69
2023/11/08 09:50:14;;;;;;;3.50;0.53;;;10.60;99.90;;;;;;4878219;29;20227;-72
2023/11/08 19:46:22;;;;;;;1.90;0.60;;;10.20;99.90;;;;;;4142351;23;20242;-78
2023/11/08 19:48:48;;;;;;;1.43;0.43;;;10.20;99.90;;;;;;4898313;29;20297;-77
2023/11/08 19:51:15;;;;;;;1.37;0.67;;;10.20;99.90;;;;;;4899801;29;20203;-76
2023/11/08 19:53:42;;;;;;;0.57;0.50;;;10.20;99.90;;;;;;4889108;29;20318;-79
2023/11/08 19:56:09;;;;;;;0.67;0.50;;;10.20;99.90;;;;;;4884340;29;20639;-79
2023/11/08 19:58:36;;;;;;;1.20;0.47;;;10.30;99.90;;;;;;4898220;29;20301;-77
2023/11/08 20:01:03;;;;;;;1.10;0.50;;;10.30;99.90;;;;;;4880613;29;20569;-78
2023/11/08 20:03:31;;;;;;;1.73;0.50;;;10.30;99.90;;;;;;4881396;29;20231;-78
2023/11/08 20:05:58;;;;;;;2.20;0.60;;;10.30;99.90;;;;;;4891184;29;20235;-79
2023/11/08 20:08:25;;;;;;;0.87;0.50;;;10.30;99.90;;;;;;4885040;29;20681;-80
2023/11/08 20:10:52;;;;;;;2.23;0.93;;;10.30;99.90;;;;;;4899111;29;20298;-78
2023/11/08 20:13:19;;;;;;;2.07;0.50;;;10.30;99.90;;;;;;4895609;29;20593;-80
2023/11/08 20:15:46;;;;;;;0.50;0.50;;;10.30;99.90;;;;;;4881124;29;20212;-79
2023/11/08 20:18:13;;;;;;;5.43;0.60;;;10.30;99.90;;;;;;4880525;29;20218;-81
2023/11/08 20:20:42;;;;;;;0.90;0.43;;;10.20;99.90;;;;;;4880155;29;20212;-80
2023/11/08 20:23:11;;;;;;;2.10;0.80;;;10.20;99.90;;;;;;4879938;29;20341;-77
2023/11/08 20:25:38;;;;;;;0.80;0.63;;;10.20;99.90;;;;;;4879901;29;20235;-77
2023/11/08 20:28:05;;;;;;;1.43;0.60;;;10.20;99.90;;;;;;4880524;29;20250;-78
2023/11/08 20:30:32;;;;;;;0.97;0.40;;;10.20;99.90;;;;;;4892589;29;20214;-78
2023/11/08 20:32:58;;;;;;;3.23;1.37;;;10.20;99.90;;;;;;4879983;29;20314;-79
2023/11/08 20:35:25;;;;;;;0.50;0.30;;;10.20;99.90;;;;;;4891390;29;20219;-74
2023/11/08 20:37:53;;;;;;;0.67;0.40;;;10.20;99.90;;;;;;4879737;29;20574;-78
2023/11/08 20:40:21;;;;;;;2.87;0.60;;;10.20;99.90;;;;;;4879514;29;20229;-72
2023/11/08 20:42:48;;;;;;;4.90;1.47;;;10.20;99.90;;;;;;4881783;29;20258;-78
2023/11/08 20:45:16;;;;;;;0.57;0.43;;;10.30;99.90;;;;;;4884760;29;20239;-77
2023/11/08 20:47:42;;;;;;;2.47;0.50;;;10.20;99.90;;;;;;4880037;29;20241;-78
2023/11/08 20:50:10;;;;;;;1.20;0.53;;;10.20;99.90;;;;;;4879361;29;20594;-73
2023/11/08 20:52:39;;;;;;;0.73;0.73;;;10.20;99.90;;;;;;4879529;29;20318;-77
2023/11/08 20:55:07;;;;;;;3.33;0.43;;;10.20;99.90;;;;;;4879697;29;20294;-73
2023/11/08 20:57:34;;;;;;;4.20;0.67;;;10.20;99.90;;;;;;4879797;29;20695;-76
2023/11/08 21:00:01;;;;;;;1.00;0.60;;;10.10;99.90;;;;;;4894235;29;20211;-77
2023/11/08 21:02:28;;;;;;;0.80;0.50;;;10.20;99.90;;;;;;4897712;29;20573;-79
2023/11/08 21:04:57;;;;;;;1.23;0.50;;;10.20;99.90;;;;;;4882319;29;20651;-77
2023/11/08 21:07:24;;;;;;;1.00;0.40;;;10.20;99.90;;;;;;4879559;29;20239;-76
2023/11/08 21:09:51;;;;;;;0.40;0.30;;;10.20;99.90;;;;;;4879489;29;20226;-76
2023/11/08 21:12:19;;;;;;;2.53;0.47;;;10.20;99.90;;;;;;4879243;29;20215;-78
2023/11/08 21:14:45;;;;;;;1.80;0.80;;;10.20;99.90;;;;;;4880899;29;20645;-73
2023/11/08 21:17:12;;;;;;;0.80;0.33;;;10.20;99.90;;;;;;4890151;29;20215;-75
2023/11/08 21:19:39;;;;;;;1.10;0.30;;;10.20;99.90;;;;;;4893863;29;20314;-73
2023/11/08 21:22:06;;;;;;;0.83;0.43;;;10.20;99.90;;;;;;4879361;29;20215;-72
2023/11/08 21:24:33;;;;;;;0.60;0.20;;;10.20;99.90;;;;;;4882255;29;20321;-74
2023/11/08 21:27:00;;;;;;;3.70;0.30;;;10.10;99.90;;;;;;4887952;29;20568;-73
2023/11/08 21:29:28;;;;;;;0.67;0.50;;;10.10;99.90;;;;;;4879750;29;20234;-72
2023/11/08 21:31:55;;;;;;;2.50;0.80;;;10.10;99.90;;;;;;4878764;29;20659;-73
2023/11/08 21:34:22;;;;;;;0.70;0.30;;;10.20;99.90;;;;;;4879204;29;20785;-73
2023/11/08 21:36:49;;;;;;;0.80;0.33;;;10.10;99.90;;;;;;4889521;29;20210;-72
2023/11/08 21:39:16;;;;;;;3.33;0.43;;;10.10;99.90;;;;;;4892708;29;20214;-72
2023/11/08 21:41:45;;;;;;;0.93;0.33;;;10.20;99.90;;;;;;4889765;29;20593;-72
2023/11/08 21:44:13;;;;;;;1.70;0.30;;;10.20;99.90;;;;;;4891242;29;20700;-75
2023/11/08 21:46:44;;;;;;;0.77;0.30;;;10.20;99.90;;;;;;4878484;29;20235;-76
2023/11/08 21:49:12;;;;;;;0.97;0.40;;;10.20;99.90;;;;;;4893167;29;20612;-76
2023/11/08 21:51:38;;;;;;;0.63;0.30;;;10.20;99.90;;;;;;4888937;29;20215;-77
2023/11/08 21:54:08;;;;;;;1.93;0.40;;;10.20;99.90;;;;;;4884621;29;20226;-77
2023/11/08 21:56:35;;;;;;;3.17;0.80;;;10.20;99.90;;;;;;4884881;29;20207;-74
2023/11/08 21:59:02;;;;;;;0.57;0.40;;;10.20;99.90;;;;;;4885276;29;20230;-77
2023/11/08 22:01:29;;;;;;;3.63;1.13;;;10.20;99.90;;;;;;4886112;29;20215;-73
2023/11/08 22:03:57;;;;;;;2.67;0.80;;;10.20;99.90;;;;;;4878725;29;20586;-76
2023/11/08 22:06:24;;;;;;;1.40;0.90;;;10.20;99.90;;;;;;4878616;29;20338;-75
2023/11/08 22:08:52;;;;;;;1.10;0.67;;;10.20;99.90;;;;;;4885658;29;20234;-73
2023/11/08 22:11:19;;;;;;;5.60;1.60;;;10.30;99.90;;;;;;4896239;29;20314;-73
2023/11/08 22:13:46;;;;;;;1.83;0.60;;;10.20;99.90;;;;;;4885978;29;20713;-75
2023/11/08 22:16:15;;;;;;;3.20;1.23;;;10.20;99.90;;;;;;4885056;29;20211;-75
2023/11/08 22:18:42;;;;;;;1.50;0.67;;;10.30;99.90;;;;;;4897515;29;20210;-74
2023/11/08 22:21:10;;;;;;;1.60;0.53;;;10.30;99.90;;;;;;4895939;29;20290;-74
2023/11/08 22:23:37;;;;;;;4.37;0.67;;;10.30;99.90;;;;;;4895625;29;20309;-72
2023/11/08 22:26:05;;;;;;;2.07;0.83;;;10.30;99.90;;;;;;4898929;29;20270;-75
2023/11/08 22:28:32;;;;;;;2.20;0.70;;;10.30;99.90;;;;;;4887092;29;20211;-75
2023/11/08 22:30:58;;;;;;;2.63;0.80;;;10.30;99.90;;;;;;4880463;29;20220;-78
2023/11/08 22:33:25;;;;;;;1.23;0.57;;;10.30;99.90;;;;;;4895027;29;20233;-77
